sensor_id;sensor_type;location;lat;lon;timestamp;P1;durP1;ratioP1;P2;durP2;ratioP2
41139;SDS011;26881;48.784;9.192;2023-07-29T00:02:29;8.50;;;3.63;;
41139;SDS011;26881;48.784;9.192;2023-07-29T00:07:53;4.72;;;3.40;;
41139;SDS011;26881;48.784;9.192;2023-07-29T00:13:15;4.75;;;3.38;;
41139;SDS011;26881;48.784;9.192;2023-07-29T00:18:37;4.82;;;3.42;;
41139;SDS011;26881;48.784;9.192;2023-07-29T00:24:00;4.00;;;3.05;;
41139;SDS011;26881;48.784;9.192;2023-07-29T00:29:22;5.03;;;2.75;;
41139;SDS011;26881;48.784;9.192;2023-07-29T00:34:44;4.57;;;2.35;;
41139;SDS011;26881;48.784;9.192;2023-07-29T00:40:12;3.45;;;2.72;;
41139;SDS011;26881;48.784;9.192;2023-07-29T00:45:37;3.35;;;2.47;;
41139;SDS011;26881;48.784;9.192;2023-07-29T00:51:03;3.33;;;2.97;;
41139;SDS011;26881;48.784;9.192;2023-07-29T00:56:25;4.97;;;2.45;;
41139;SDS011;26881;48.784;9.192;2023-07-29T01:01:47;2.95;;;2.28;;
41139;SDS011;26881;48.784;9.192;2023-07-29T01:07:13;3.63;;;2.30;;
41139;SDS011;26881;48.784;9.192;2023-07-29T01:12:47;3.83;;;2.55;;
41139;SDS011;26881;48.784;9.192;2023-07-29T01:18:23;4.30;;;2.72;;
41139;SDS011;26881;48.784;9.192;2023-07-29T01:23:52;4.70;;;2.58;;
41139;SDS011;26881;48.784;9.192;2023-07-29T01:29:14;4.10;;;2.65;;
41139;SDS011;26881;48.784;9.192;2023-07-29T01:34:39;3.33;;;2.85;;
41139;SDS011;26881;48.784;9.192;2023-07-29T01:40:07;5.53;;;2.85;;
41139;SDS011;26881;48.784;9.192;2023-07-29T01:45:31;5.30;;;2.92;;
41139;SDS011;26881;48.784;9.192;2023-07-29T01:50:57;2.67;;;2.47;;
41139;SDS011;26881;48.784;9.192;2023-07-29T01:56:19;2.55;;;2.35;;
41139;SDS011;26881;48.784;9.192;2023-07-29T02:01:41;3.50;;;2.60;;
41139;SDS011;26881;48.784;9.192;2023-07-29T02:07:03;4.75;;;2.33;;
41139;SDS011;26881;48.784;9.192;2023-07-29T02:12:24;3.97;;;2.45;;
41139;SDS011;26881;48.784;9.192;2023-07-29T02:17:46;3.05;;;2.33;;
41139;SDS011;26881;48.784;9.192;2023-07-29T02:23:08;4.00;;;2.40;;
41139;SDS011;26881;48.784;9.192;2023-07-29T02:28:30;3.47;;;2.33;;
41139;SDS011;26881;48.784;9.192;2023-07-29T02:33:52;4.18;;;2.58;;
41139;SDS011;26881;48.784;9.192;2023-07-29T02:39:14;3.08;;;2.70;;
41139;SDS011;26881;48.784;9.192;2023-07-29T02:44:36;2.60;;;2.28;;
41139;SDS011;26881;48.784;9.192;2023-07-29T02:49:58;5.30;;;2.83;;
41139;SDS011;26881;48.784;9.192;2023-07-29T02:55:20;5.55;;;3.08;;
41139;SDS011;26881;48.784;9.192;2023-07-29T03:00:42;3.78;;;2.70;;
41139;SDS011;26881;48.784;9.192;2023-07-29T03:06:05;3.38;;;2.85;;
41139;SDS011;26881;48.784;9.192;2023-07-29T03:11:29;6.72;;;2.78;;
41139;SDS011;26881;48.784;9.192;2023-07-29T03:16:52;3.20;;;2.90;;
41139;SDS011;26881;48.784;9.192;2023-07-29T03:22:15;4.25;;;2.88;;
41139;SDS011;26881;48.784;9.192;2023-07-29T03:27:37;2.83;;;2.50;;
41139;SDS011;26881;48.784;9.192;2023-07-29T03:32:58;4.13;;;2.83;;
41139;SDS011;26881;48.784;9.192;2023-07-29T03:38:20;3.75;;;2.35;;
41139;SDS011;26881;48.784;9.192;2023-07-29T03:43:42;2.97;;;1.98;;
41139;SDS011;26881;48.784;9.192;2023-07-29T03:49:04;2.80;;;2.60;;
41139;SDS011;26881;48.784;9.192;2023-07-29T03:54:26;2.15;;;2.05;;
41139;SDS011;26881;48.784;9.192;2023-07-29T03:59:48;3.35;;;2.17;;
41139;SDS011;26881;48.784;9.192;2023-07-29T04:05:10;6.18;;;2.55;;
41139;SDS011;26881;48.784;9.192;2023-07-29T04:10:32;7.40;;;2.95;;
41139;SDS011;26881;48.784;9.192;2023-07-29T04:15:54;5.03;;;2.75;;
41139;SDS011;26881;48.784;9.192;2023-07-29T04:21:16;4.03;;;2.92;;
41139;SDS011;26881;48.784;9.192;2023-07-29T04:26:37;5.78;;;2.28;;
41139;SDS011;26881;48.784;9.192;2023-07-29T04:32:01;2.70;;;2.25;;
41139;SDS011;26881;48.784;9.192;2023-07-29T04:37:24;5.07;;;2.58;;
41139;SDS011;26881;48.784;9.192;2023-07-29T04:42:46;6.70;;;3.28;;
41139;SDS011;26881;48.784;9.192;2023-07-29T04:48:07;5.45;;;3.10;;
41139;SDS011;26881;48.784;9.192;2023-07-29T04:53:29;7.18;;;2.97;;
41139;SDS011;26881;48.784;9.192;2023-07-29T04:58:51;4.32;;;3.30;;
41139;SDS011;26881;48.784;9.192;2023-07-29T05:04:14;5.00;;;4.13;;
41139;SDS011;26881;48.784;9.192;2023-07-29T05:09:37;4.13;;;3.70;;
41139;SDS011;26881;48.784;9.192;2023-07-29T05:14:59;5.38;;;3.15;;
41139;SDS011;26881;48.784;9.192;2023-07-29T05:20:20;3.22;;;2.72;;
41139;SDS011;26881;48.784;9.192;2023-07-29T05:25:42;4.13;;;2.90;;
41139;SDS011;26881;48.784;9.192;2023-07-29T05:31:04;3.42;;;2.90;;
41139;SDS011;26881;48.784;9.192;2023-07-29T05:36:26;4.10;;;3.22;;
41139;SDS011;26881;48.784;9.192;2023-07-29T05:41:48;6.78;;;3.13;;
41139;SDS011;26881;48.784;9.192;2023-07-29T05:47:10;6.72;;;3.75;;
41139;SDS011;26881;48.784;9.192;2023-07-29T05:52:32;9.30;;;3.22;;
41139;SDS011;26881;48.784;9.192;2023-07-29T05:57:54;7.72;;;3.38;;
41139;SDS011;26881;48.784;9.192;2023-07-29T06:03:16;3.92;;;3.22;;
41139;SDS011;26881;48.784;9.192;2023-07-29T06:08:38;4.78;;;3.10;;
41139;SDS011;26881;48.784;9.192;2023-07-29T06:14:00;5.78;;;2.60;;
41139;SDS011;26881;48.784;9.192;2023-07-29T06:19:22;4.60;;;2.60;;
41139;SDS011;26881;48.784;9.192;2023-07-29T06:24:44;3.13;;;2.25;;
41139;SDS011;26881;48.784;9.192;2023-07-29T06:30:06;4.15;;;2.65;;
41139;SDS011;26881;48.784;9.192;2023-07-29T06:35:28;3.58;;;2.70;;
41139;SDS011;26881;48.784;9.192;2023-07-29T06:40:50;5.75;;;2.28;;
41139;SDS011;26881;48.784;9.192;2023-07-29T06:46:12;2.85;;;2.40;;
41139;SDS011;26881;48.784;9.192;2023-07-29T06:51:34;2.58;;;2.30;;
41139;SDS011;26881;48.784;9.192;2023-07-29T06:56:57;3.53;;;2.17;;
41139;SDS011;26881;48.784;9.192;2023-07-29T07:02:19;3.35;;;2.30;;
41139;SDS011;26881;48.784;9.192;2023-07-29T07:07:41;5.78;;;2.47;;
41139;SDS011;26881;48.784;9.192;2023-07-29T07:13:03;3.90;;;2.28;;
41139;SDS011;26881;48.784;9.192;2023-07-29T07:18:28;3.28;;;2.00;;
41139;SDS011;26881;48.784;9.192;2023-07-29T07:23:50;2.80;;;1.90;;
41139;SDS011;26881;48.784;9.192;2023-07-29T07:29:12;2.35;;;1.90;;
41139;SDS011;26881;48.784;9.192;2023-07-29T07:34:34;3.10;;;1.35;;
41139;SDS011;26881;48.784;9.192;2023-07-29T07:39:56;1.80;;;1.70;;
41139;SDS011;26881;48.784;9.192;2023-07-29T07:45:18;2.88;;;1.80;;
41139;SDS011;26881;48.784;9.192;2023-07-29T07:50:40;2.08;;;1.88;;
41139;SDS011;26881;48.784;9.192;2023-07-29T07:56:02;3.90;;;2.28;;
41139;SDS011;26881;48.784;9.192;2023-07-29T08:01:24;2.58;;;2.10;;
41139;SDS011;26881;48.784;9.192;2023-07-29T08:06:45;3.00;;;1.83;;
41139;SDS011;26881;48.784;9.192;2023-07-29T08:12:07;1.73;;;1.60;;
41139;SDS011;26881;48.784;9.192;2023-07-29T08:17:29;1.98;;;1.77;;
41139;SDS011;26881;48.784;9.192;2023-07-29T08:22:51;4.38;;;1.55;;
41139;SDS011;26881;48.784;9.192;2023-07-29T08:28:13;6.07;;;1.50;;
41139;SDS011;26881;48.784;9.192;2023-07-29T08:33:35;4.03;;;1.10;;
41139;SDS011;26881;48.784;9.192;2023-07-29T08:38:57;3.90;;;1.50;;
41139;SDS011;26881;48.784;9.192;2023-07-29T08:44:22;3.47;;;1.52;;
41139;SDS011;26881;48.784;9.192;2023-07-29T08:49:45;1.23;;;1.17;;
41139;SDS011;26881;48.784;9.192;2023-07-29T08:55:08;3.45;;;1.45;;
41139;SDS011;26881;48.784;9.192;2023-07-29T09:00:30;2.10;;;1.10;;
41139;SDS011;26881;48.784;9.192;2023-07-29T09:05:53;2.60;;;1.20;;
41139;SDS011;26881;48.784;9.192;2023-07-29T09:11:18;1.00;;;1.00;;
41139;SDS011;26881;48.784;9.192;2023-07-29T09:16:40;1.40;;;1.13;;
41139;SDS011;26881;48.784;9.192;2023-07-29T09:22:03;3.45;;;1.30;;
41139;SDS011;26881;48.784;9.192;2023-07-29T09:27:25;1.23;;;1.20;;
41139;SDS011;26881;48.784;9.192;2023-07-29T09:32:52;3.53;;;1.30;;
41139;SDS011;26881;48.784;9.192;2023-07-29T09:38:16;2.45;;;1.50;;
41139;SDS011;26881;48.784;9.192;2023-07-29T09:43:38;2.55;;;1.15;;
41139;SDS011;26881;48.784;9.192;2023-07-29T09:49:02;3.22;;;1.30;;
41139;SDS011;26881;48.784;9.192;2023-07-29T09:54:24;2.05;;;1.40;;
41139;SDS011;26881;48.784;9.192;2023-07-29T09:59:53;2.00;;;1.20;;
41139;SDS011;26881;48.784;9.192;2023-07-29T10:05:19;1.30;;;1.30;;
41139;SDS011;26881;48.784;9.192;2023-07-29T10:10:43;1.23;;;1.13;;
41139;SDS011;26881;48.784;9.192;2023-07-29T10:16:05;1.35;;;1.25;;
41139;SDS011;26881;48.784;9.192;2023-07-29T10:21:27;1.30;;;1.20;;
41139;SDS011;26881;48.784;9.192;2023-07-29T10:26:51;3.17;;;1.63;;
41139;SDS011;26881;48.784;9.192;2023-07-29T10:32:13;1.65;;;1.15;;
41139;SDS011;26881;48.784;9.192;2023-07-29T10:37:36;2.15;;;1.40;;
41139;SDS011;26881;48.784;9.192;2023-07-29T10:43:42;1.05;;;1.00;;
41139;SDS011;26881;48.784;9.192;2023-07-29T10:54:13;1.40;;;1.30;;
41139;SDS011;26881;48.784;9.192;2023-07-29T10:59:36;1.00;;;0.98;;
41139;SDS011;26881;48.784;9.192;2023-07-29T11:04:58;3.42;;;0.90;;
41139;SDS011;26881;48.784;9.192;2023-07-29T11:10:21;0.90;;;0.90;;
41139;SDS011;26881;48.784;9.192;2023-07-29T11:15:43;1.20;;;1.10;;
41139;SDS011;26881;48.784;9.192;2023-07-29T11:21:07;1.30;;;1.20;;
41139;SDS011;26881;48.784;9.192;2023-07-29T11:26:29;2.15;;;1.00;;
41139;SDS011;26881;48.784;9.192;2023-07-29T11:31:51;1.30;;;1.20;;
41139;SDS011;26881;48.784;9.192;2023-07-29T11:37:13;1.15;;;1.15;;
41139;SDS011;26881;48.784;9.192;2023-07-29T11:42:35;1.00;;;1.00;;
41139;SDS011;26881;48.784;9.192;2023-07-29T11:47:57;3.38;;;1.10;;
41139;SDS011;26881;48.784;9.192;2023-07-29T11:53:20;0.98;;;0.98;;
41139;SDS011;26881;48.784;9.192;2023-07-29T11:58:42;1.13;;;1.10;;
41139;SDS011;26881;48.784;9.192;2023-07-29T12:04:04;1.15;;;1.08;;
41139;SDS011;26881;48.784;9.192;2023-07-29T12:09:26;1.70;;;1.00;;
41139;SDS011;26881;48.784;9.192;2023-07-29T12:14:49;2.22;;;1.17;;
41139;SDS011;26881;48.784;9.192;2023-07-29T12:20:11;3.38;;;1.40;;
41139;SDS011;26881;48.784;9.192;2023-07-29T12:25:33;1.83;;;1.27;;
41139;SDS011;26881;48.784;9.192;2023-07-29T12:30:56;1.40;;;1.30;;
41139;SDS011;26881;48.784;9.192;2023-07-29T12:36:19;2.88;;;1.35;;
41139;SDS011;26881;48.784;9.192;2023-07-29T12:41:41;2.25;;;1.25;;
41139;SDS011;26881;48.784;9.192;2023-07-29T12:47:03;1.63;;;1.52;;
41139;SDS011;26881;48.784;9.192;2023-07-29T12:52:26;1.35;;;1.10;;
41139;SDS011;26881;48.784;9.192;2023-07-29T12:57:49;1.17;;;1.17;;
41139;SDS011;26881;48.784;9.192;2023-07-29T13:03:11;1.75;;;1.35;;
41139;SDS011;26881;48.784;9.192;2023-07-29T13:08:33;2.05;;;1.52;;
41139;SDS011;26881;48.784;9.192;2023-07-29T13:13:55;1.60;;;1.50;;
41139;SDS011;26881;48.784;9.192;2023-07-29T13:19:18;2.55;;;1.50;;
41139;SDS011;26881;48.784;9.192;2023-07-29T13:24:40;4.15;;;1.80;;
41139;SDS011;26881;48.784;9.192;2023-07-29T13:30:02;1.42;;;1.33;;
41139;SDS011;26881;48.784;9.192;2023-07-29T13:35:24;3.10;;;1.40;;
41139;SDS011;26881;48.784;9.192;2023-07-29T13:40:47;1.60;;;1.50;;
41139;SDS011;26881;48.784;9.192;2023-07-29T13:46:09;1.08;;;1.08;;
41139;SDS011;26881;48.784;9.192;2023-07-29T13:51:31;2.63;;;1.50;;
41139;SDS011;26881;48.784;9.192;2023-07-29T13:56:53;3.75;;;1.25;;
41139;SDS011;26881;48.784;9.192;2023-07-29T14:02:15;1.52;;;1.40;;
41139;SDS011;26881;48.784;9.192;2023-07-29T14:07:37;2.20;;;1.60;;
41139;SDS011;26881;48.784;9.192;2023-07-29T14:12:59;1.30;;;1.20;;
41139;SDS011;26881;48.784;9.192;2023-07-29T14:18:21;2.00;;;1.50;;
41139;SDS011;26881;48.784;9.192;2023-07-29T14:23:43;2.83;;;1.40;;
41139;SDS011;26881;48.784;9.192;2023-07-29T14:29:05;1.92;;;1.40;;
41139;SDS011;26881;48.784;9.192;2023-07-29T14:34:27;1.33;;;1.33;;
41139;SDS011;26881;48.784;9.192;2023-07-29T14:39:50;2.80;;;1.50;;
41139;SDS011;26881;48.784;9.192;2023-07-29T14:45:12;2.85;;;1.80;;
41139;SDS011;26881;48.784;9.192;2023-07-29T14:50:34;1.80;;;1.70;;
41139;SDS011;26881;48.784;9.192;2023-07-29T14:55:56;1.65;;;1.52;;
41139;SDS011;26881;48.784;9.192;2023-07-29T15:01:18;2.20;;;1.60;;
41139;SDS011;26881;48.784;9.192;2023-07-29T15:06:40;2.92;;;1.65;;
41139;SDS011;26881;48.784;9.192;2023-07-29T15:12:02;1.83;;;1.73;;
41139;SDS011;26881;48.784;9.192;2023-07-29T15:17:25;2.30;;;1.70;;
41139;SDS011;26881;48.784;9.192;2023-07-29T15:22:47;2.00;;;1.80;;
41139;SDS011;26881;48.784;9.192;2023-07-29T15:28:08;2.20;;;2.10;;
41139;SDS011;26881;48.784;9.192;2023-07-29T15:33:30;2.10;;;1.90;;
41139;SDS011;26881;48.784;9.192;2023-07-29T15:38:55;2.08;;;1.77;;
41139;SDS011;26881;48.784;9.192;2023-07-29T15:44:17;1.50;;;1.40;;
41139;SDS011;26881;48.784;9.192;2023-07-29T15:49:39;1.92;;;1.80;;
41139;SDS011;26881;48.784;9.192;2023-07-29T15:55:01;2.00;;;1.40;;
41139;SDS011;26881;48.784;9.192;2023-07-29T16:00:23;2.63;;;1.70;;
41139;SDS011;26881;48.784;9.192;2023-07-29T16:05:48;2.35;;;1.80;;
41139;SDS011;26881;48.784;9.192;2023-07-29T16:11:10;1.90;;;1.70;;
41139;SDS011;26881;48.784;9.192;2023-07-29T16:16:31;1.40;;;1.33;;
41139;SDS011;26881;48.784;9.192;2023-07-29T16:21:53;1.50;;;1.40;;
41139;SDS011;26881;48.784;9.192;2023-07-29T16:27:15;1.60;;;1.50;;
41139;SDS011;26881;48.784;9.192;2023-07-29T16:32:37;2.83;;;1.80;;
41139;SDS011;26881;48.784;9.192;2023-07-29T16:38:00;2.20;;;2.10;;
41139;SDS011;26881;48.784;9.192;2023-07-29T16:43:22;2.78;;;1.38;;
41139;SDS011;26881;48.784;9.192;2023-07-29T16:48:44;1.98;;;1.50;;
41139;SDS011;26881;48.784;9.192;2023-07-29T16:54:06;2.30;;;1.45;;
41139;SDS011;26881;48.784;9.192;2023-07-29T16:59:27;2.33;;;2.05;;
41139;SDS011;26881;48.784;9.192;2023-07-29T17:04:49;2.08;;;1.60;;
41139;SDS011;26881;48.784;9.192;2023-07-29T17:10:11;1.83;;;1.73;;
41139;SDS011;26881;48.784;9.192;2023-07-29T17:15:33;3.22;;;1.63;;
41139;SDS011;26881;48.784;9.192;2023-07-29T17:20:55;2.47;;;1.52;;
41139;SDS011;26881;48.784;9.192;2023-07-29T17:26:17;2.75;;;1.63;;
41139;SDS011;26881;48.784;9.192;2023-07-29T17:31:39;2.08;;;1.85;;
41139;SDS011;26881;48.784;9.192;2023-07-29T17:37:04;0.95;;;0.95;;
41139;SDS011;26881;48.784;9.192;2023-07-29T17:42:27;1.40;;;1.10;;
41139;SDS011;26881;48.784;9.192;2023-07-29T17:47:48;2.78;;;1.20;;
41139;SDS011;26881;48.784;9.192;2023-07-29T17:53:10;1.80;;;1.55;;
41139;SDS011;26881;48.784;9.192;2023-07-29T17:58:32;3.83;;;1.60;;
41139;SDS011;26881;48.784;9.192;2023-07-29T18:03:54;2.45;;;1.75;;
41139;SDS011;26881;48.784;9.192;2023-07-29T18:09:16;2.53;;;1.83;;
41139;SDS011;26881;48.784;9.192;2023-07-29T18:14:38;2.22;;;2.03;;
41139;SDS011;26881;48.784;9.192;2023-07-29T18:20:00;2.53;;;1.92;;
41139;SDS011;26881;48.784;9.192;2023-07-29T18:25:22;1.65;;;1.55;;
41139;SDS011;26881;48.784;9.192;2023-07-29T18:30:44;2.00;;;1.63;;
41139;SDS011;26881;48.784;9.192;2023-07-29T18:36:06;2.33;;;1.50;;
41139;SDS011;26881;48.784;9.192;2023-07-29T18:41:28;1.80;;;1.70;;
41139;SDS011;26881;48.784;9.192;2023-07-29T18:46:52;2.47;;;1.90;;
41139;SDS011;26881;48.784;9.192;2023-07-29T18:52:15;1.85;;;1.75;;
41139;SDS011;26881;48.784;9.192;2023-07-29T18:57:37;2.95;;;2.50;;
41139;SDS011;26881;48.784;9.192;2023-07-29T19:02:59;1.90;;;1.80;;
41139;SDS011;26881;48.784;9.192;2023-07-29T19:08:21;3.63;;;2.55;;
41139;SDS011;26881;48.784;9.192;2023-07-29T19:13:43;2.70;;;2.30;;
41139;SDS011;26881;48.784;9.192;2023-07-29T19:19:05;3.08;;;2.35;;
41139;SDS011;26881;48.784;9.192;2023-07-29T19:24:27;3.00;;;2.70;;
41139;SDS011;26881;48.784;9.192;2023-07-29T19:29:49;3.53;;;2.55;;
41139;SDS011;26881;48.784;9.192;2023-07-29T19:35:11;3.03;;;2.58;;
41139;SDS011;26881;48.784;9.192;2023-07-29T19:40:33;5.00;;;2.50;;
41139;SDS011;26881;48.784;9.192;2023-07-29T19:45:58;3.15;;;2.50;;
41139;SDS011;26881;48.784;9.192;2023-07-29T19:51:40;3.85;;;2.85;;
41139;SDS011;26881;48.784;9.192;2023-07-29T19:57:02;2.75;;;2.55;;
41139;SDS011;26881;48.784;9.192;2023-07-29T20:02:24;2.95;;;2.75;;
41139;SDS011;26881;48.784;9.192;2023-07-29T20:07:48;4.53;;;2.75;;
41139;SDS011;26881;48.784;9.192;2023-07-29T20:13:10;3.45;;;3.13;;
41139;SDS011;26881;48.784;9.192;2023-07-29T20:18:31;3.75;;;3.33;;
41139;SDS011;26881;48.784;9.192;2023-07-29T20:23:53;3.22;;;2.83;;
41139;SDS011;26881;48.784;9.192;2023-07-29T20:29:16;4.65;;;3.28;;
41139;SDS011;26881;48.784;9.192;2023-07-29T20:34:38;3.33;;;3.00;;
41139;SDS011;26881;48.784;9.192;2023-07-29T20:39:59;3.30;;;3.00;;
41139;SDS011;26881;48.784;9.192;2023-07-29T20:45:24;3.45;;;3.15;;
41139;SDS011;26881;48.784;9.192;2023-07-29T20:50:46;3.40;;;3.10;;
41139;SDS011;26881;48.784;9.192;2023-07-29T20:56:08;3.30;;;3.00;;
41139;SDS011;26881;48.784;9.192;2023-07-29T21:01:30;5.53;;;3.17;;
41139;SDS011;26881;48.784;9.192;2023-07-29T21:06:52;3.40;;;3.15;;
41139;SDS011;26881;48.784;9.192;2023-07-29T21:12:14;3.13;;;2.88;;
41139;SDS011;26881;48.784;9.192;2023-07-29T21:17:37;3.63;;;3.15;;
41139;SDS011;26881;48.784;9.192;2023-07-29T21:22:59;3.65;;;3.35;;
41139;SDS011;26881;48.784;9.192;2023-07-29T21:28:21;3.40;;;3.10;;
41139;SDS011;26881;48.784;9.192;2023-07-29T21:33:43;2.72;;;2.53;;
41139;SDS011;26881;48.784;9.192;2023-07-29T21:39:04;3.10;;;2.90;;
41139;SDS011;26881;48.784;9.192;2023-07-29T21:44:26;3.30;;;3.00;;
41139;SDS011;26881;48.784;9.192;2023-07-29T21:49:48;3.30;;;3.00;;
41139;SDS011;26881;48.784;9.192;2023-07-29T21:55:10;3.83;;;3.25;;
41139;SDS011;26881;48.784;9.192;2023-07-29T22:00:32;3.88;;;2.95;;
41139;SDS011;26881;48.784;9.192;2023-07-29T22:06:01;4.40;;;3.45;;
41139;SDS011;26881;48.784;9.192;2023-07-29T22:11:23;4.43;;;2.85;;
41139;SDS011;26881;48.784;9.192;2023-07-29T22:16:46;3.42;;;3.22;;
41139;SDS011;26881;48.784;9.192;2023-07-29T22:22:08;3.50;;;3.17;;
41139;SDS011;26881;48.784;9.192;2023-07-29T22:27:30;4.10;;;3.45;;
41139;SDS011;26881;48.784;9.192;2023-07-29T22:32:52;3.60;;;3.30;;
41139;SDS011;26881;48.784;9.192;2023-07-29T22:38:14;5.22;;;3.65;;
41139;SDS011;26881;48.784;9.192;2023-07-29T22:43:36;7.38;;;4.05;;
41139;SDS011;26881;48.784;9.192;2023-07-29T22:48:58;4.20;;;3.80;;
41139;SDS011;26881;48.784;9.192;2023-07-29T22:54:20;5.78;;;3.90;;
41139;SDS011;26881;48.784;9.192;2023-07-29T22:59:42;5.82;;;4.07;;
41139;SDS011;26881;48.784;9.192;2023-07-29T23:05:04;7.25;;;5.15;;
41139;SDS011;26881;48.784;9.192;2023-07-29T23:10:26;18.60;;;7.05;;
41139;SDS011;26881;48.784;9.192;2023-07-29T23:15:49;8.48;;;5.00;;
41139;SDS011;26881;48.784;9.192;2023-07-29T23:21:13;7.22;;;5.07;;
41139;SDS011;26881;48.784;9.192;2023-07-29T23:26:34;8.57;;;5.15;;
41139;SDS011;26881;48.784;9.192;2023-07-29T23:31:56;7.20;;;4.93;;
41139;SDS011;26881;48.784;9.192;2023-07-29T23:37:18;16.35;;;5.47;;
41139;SDS011;26881;48.784;9.192;2023-07-29T23:42:40;9.27;;;7.03;;
41139;SDS011;26881;48.784;9.192;2023-07-29T23:48:02;5.03;;;4.10;;
41139;SDS011;26881;48.784;9.192;2023-07-29T23:53:24;4.53;;;2.40;;
41139;SDS011;26881;48.784;9.192;2023-07-29T23:58:46;3.75;;;2.40;;
